This is the latest recevied weather packets stored in our database for station/object KB1YYC. If no packets are shown the sender has not sent any weather packets the latest 1 day(s).
| Time | Temp. | Humidity | Pressure | Rain* | Wind** | Luminosity | Snow |
|---|---|---|---|---|---|---|---|
| 1778075437 | 18.33° C | 74% | 1009 hPa | 0 mm | - | 134 W/m² | - |
| 1778074527 | 18.33° C | 74% | 1009 hPa | 0 mm | - | 147 W/m² | - |
| 1778074224 | 18.33° C | 75% | 1008.8 hPa | 0 mm | - | 138 W/m² | - |
| 1778073921 | 18.33° C | 74% | 1008.9 hPa | 0 mm | - | 151 W/m² | - |
| 1778073012 | 17.78° C | 76% | 1008.8 hPa | 0 mm | - | 114 W/m² | - |
| 1778070895 | 16.11° C | 78% | 1008.9 hPa | 0 mm | - | 126 W/m² | - |
| 1778070289 | 15° C | 80% | 1009.1 hPa | 0 mm | - | 203 W/m² | - |
| 1778067869 | 13.33° C | 85% | 1009 hPa | 0 mm | - | 104 W/m² | - |
| 1778067265 | 12.78° C | 85% | 1009.5 hPa | 0 mm | - | 93 W/m² | - |
| 1778066961 | 12.78° C | 86% | 1009.4 hPa | 0 mm | - | 91 W/m² | - |
| 1778066659 | 12.78° C | 86% | 1009.4 hPa | 0 mm | - | 86 W/m² | - |
| 1778066356 | 12.78° C | 85% | 1009.7 hPa | 0 mm | - | 67 W/m² | - |
| 1778066054 | 12.22° C | 86% | 1009.7 hPa | 0 mm | - | 66 W/m² | - |
| 1778065751 | 12.22° C | 86% | 1009.5 hPa | 0 mm | - | 79 W/m² | - |
| 1778065145 | 12.22° C | 87% | 1009.9 hPa | 0 mm | - | 52 W/m² | - |
| 1778064539 | 11.67° C | 88% | 1009.6 hPa | 0 mm | - | 68 W/m² | - |
| 1778063934 | 11.67° C | 88% | 1009.6 hPa | 0 mm | - | 35 W/m² | - |
| 1778062419 | 11.67° C | 89% | 1009.3 hPa | 0 mm | - | 26 W/m² | - |
| 1778062117 | 11.67° C | 89% | 1009.2 hPa | 0 mm | - | 20 W/m² | - |
| 1778061210 | 11.67° C | 89% | 1009.1 hPa | 0 mm | - | 14 W/m² | - |
| 1778060907 | 11.67° C | 89% | 1009.1 hPa | 0 mm | - | 11 W/m² | - |
| 1778060606 | 11.67° C | 89% | 1009.3 hPa | 0 mm | - | 7 W/m² | - |
| 1778059396 | 12.22° C | 87% | 1009 hPa | 0 mm | - | 1 W/m² | - |
| 1778058488 | 12.78° C | 86% | 1009.3 hPa | 0 mm | - | 0 W/m² | - |
| 1778058185 | 12.78° C | 85% | 1009.1 hPa | 0 mm | - | 0 W/m² | - |
* Rain latest hour (hover to see other rain measurements)
** Current wind speed in m/s (hover to see current wind gust speed)